Time;durP1;ratioP1;P1;durP2;ratioP2;P2;SDS_P1;SDS_P2;PMS_P1;PMS_P2;Temp;Humidity;BMP_temperature;BMP_pressure;BME280_temperature;BME280_humidity;BME280_pressure;Samples;Min_cycle;Max_cycle;Signal;HPM_P1;HPM_P2
2023/08/07 00:03:35;;;;;;;5.22;4.35;;;;;;;;;;10288215;28;20072;-61
2023/08/07 00:08:33;;;;;;;4.05;3.65;;;;;;;;;;10287942;28;20065;-61
2023/08/07 00:13:32;;;;;;;4.05;3.65;;;;;;;;;;10288649;28;20081;-62
2023/08/07 00:18:31;;;;;;;4.63;4.28;;;;;;;;;;10287409;28;20481;-62
2023/08/07 00:23:29;;;;;;;4.40;4.10;;;;;;;;;;10290151;28;20084;-62
2023/08/07 00:28:28;;;;;;;4.68;4.28;;;;;;;;;;10288838;28;20462;-62
2023/08/07 00:33:26;;;;;;;4.35;3.97;;;;;;;;;;10284666;28;20083;-63
2023/08/07 00:38:25;;;;;;;3.90;3.60;;;;;;;;;;10290596;28;20075;-62
2023/08/07 00:43:24;;;;;;;3.97;3.58;;;;;;;;;;10295754;28;20080;-62
2023/08/07 00:48:23;;;;;;;4.10;3.80;;;;;;;;;;10290351;28;20072;-62
2023/08/07 00:53:21;;;;;;;3.80;3.50;;;;;;;;;;10290997;28;20080;-61
2023/08/07 00:58:21;;;;;;;3.40;3.10;;;;;;;;;;10294646;28;20079;-61
2023/08/07 01:03:19;;;;;;;3.63;3.33;;;;;;;;;;10292783;28;20076;-62
2023/08/07 01:08:17;;;;;;;3.30;3.00;;;;;;;;;;10296435;28;20068;-61
2023/08/07 01:13:20;;;;;;;3.28;2.97;;;;;;;;;;10301511;28;20087;-61
2023/08/07 01:18:20;;;;;;;4.32;2.90;;;;;;;;;;10293155;28;20495;-62
2023/08/07 01:23:19;;;;;;;3.40;3.10;;;;;;;;;;10300188;28;20485;-62
2023/08/07 01:28:19;;;;;;;4.28;2.58;;;;;;;;;;10291738;28;20501;-61
2023/08/07 01:33:23;;;;;;;2.60;2.40;;;;;;;;;;10305051;28;20076;-61
2023/08/07 01:38:25;;;;;;;3.10;2.90;;;;;;;;;;10293993;28;20073;-61
2023/08/07 01:43:23;;;;;;;2.50;2.28;;;;;;;;;;10293381;28;20107;-61
2023/08/07 01:48:21;;;;;;;4.85;2.80;;;;;;;;;;10294292;28;20076;-61
2023/08/07 01:53:24;;;;;;;2.70;2.50;;;;;;;;;;10295199;28;20072;-62
2023/08/07 01:58:23;;;;;;;3.65;2.60;;;;;;;;;;10295591;28;20060;-62
2023/08/07 02:03:22;;;;;;;3.55;3.10;;;;;;;;;;10293629;28;20072;-61
2023/08/07 02:08:20;;;;;;;3.15;2.90;;;;;;;;;;10293109;28;20491;-61
2023/08/07 02:13:20;;;;;;;3.88;3.58;;;;;;;;;;10292349;28;20080;-61
2023/08/07 02:18:18;;;;;;;3.33;3.13;;;;;;;;;;10290622;28;20079;-62
2023/08/07 02:23:16;;;;;;;5.97;3.38;;;;;;;;;;10292727;28;20076;-62
2023/08/07 02:28:14;;;;;;;4.32;3.33;;;;;;;;;;10292919;28;20544;-63
2023/08/07 02:33:14;;;;;;;5.65;4.05;;;;;;;;;;10292035;28;20084;-60
2023/08/07 02:38:12;;;;;;;3.92;3.63;;;;;;;;;;10288620;28;20060;-62
2023/08/07 02:43:10;;;;;;;4.35;3.50;;;;;;;;;;10305361;28;20532;-62
2023/08/07 02:48:11;;;;;;;3.00;2.80;;;;;;;;;;10291966;28;20076;-62
2023/08/07 02:53:10;;;;;;;2.83;2.63;;;;;;;;;;10299076;28;20072;-62
2023/08/07 02:58:08;;;;;;;3.38;3.08;;;;;;;;;;10292671;28;20068;-61
2023/08/07 03:03:07;;;;;;;3.20;2.83;;;;;;;;;;10290142;28;20051;-61
2023/08/07 03:08:05;;;;;;;4.90;2.85;;;;;;;;;;10290723;28;20083;-61
2023/08/07 03:13:04;;;;;;;2.75;2.55;;;;;;;;;;10291932;28;20071;-61
2023/08/07 03:18:03;;;;;;;4.47;2.20;;;;;;;;;;10273059;28;20476;-62
2023/08/07 03:23:01;;;;;;;2.28;2.15;;;;;;;;;;10289365;28;20076;-61
2023/08/07 03:27:59;;;;;;;2.92;2.30;;;;;;;;;;10296739;28;20049;-61
2023/08/07 03:32:59;;;;;;;3.13;2.50;;;;;;;;;;10290367;28;20091;-61
2023/08/07 03:37:59;;;;;;;2.83;2.17;;;;;;;;;;10298471;28;20080;-61
2023/08/07 03:42:57;;;;;;;4.13;2.00;;;;;;;;;;10273807;28;20150;-61
2023/08/07 03:47:56;;;;;;;4.85;2.78;;;;;;;;;;10287865;28;20052;-61
2023/08/07 03:52:56;;;;;;;3.03;2.58;;;;;;;;;;10288584;28;20084;-62
2023/08/07 03:57:56;;;;;;;2.92;2.63;;;;;;;;;;10290354;28;20056;-61
2023/08/07 04:02:54;;;;;;;2.60;2.40;;;;;;;;;;10290908;28;20076;-62
2023/08/07 04:07:52;;;;;;;3.88;2.33;;;;;;;;;;10296196;28;20087;-61
2023/08/07 04:12:52;;;;;;;3.00;2.75;;;;;;;;;;10290123;28;20085;-61
2023/08/07 04:17:50;;;;;;;3.00;2.80;;;;;;;;;;10288697;28;20072;-62
2023/08/07 04:22:48;;;;;;;4.38;2.95;;;;;;;;;;10289726;28;20080;-61
2023/08/07 04:27:47;;;;;;;4.57;2.75;;;;;;;;;;10291277;28;20448;-61
2023/08/07 04:32:46;;;;;;;3.95;2.80;;;;;;;;;;10295512;28;20486;-62
2023/08/07 04:37:45;;;;;;;3.42;3.10;;;;;;;;;;10295774;28;20670;-61
2023/08/07 04:42:43;;;;;;;3.45;3.03;;;;;;;;;;10295146;28;20478;-62
2023/08/07 04:47:41;;;;;;;3.97;3.67;;;;;;;;;;10295513;28;20079;-62
2023/08/07 04:52:41;;;;;;;3.47;3.15;;;;;;;;;;10297000;28;20077;-61
2023/08/07 04:57:39;;;;;;;11.10;3.33;;;;;;;;;;10295377;28;20517;-61
2023/08/07 05:02:37;;;;;;;3.45;3.15;;;;;;;;;;10297110;28;20083;-61
2023/08/07 05:07:36;;;;;;;5.32;3.55;;;;;;;;;;10293701;28;20076;-61
2023/08/07 05:12:35;;;;;;;3.28;2.97;;;;;;;;;;10293286;28;20075;-61
2023/08/07 05:17:34;;;;;;;3.22;2.92;;;;;;;;;;10295186;28;20077;-61
2023/08/07 05:22:32;;;;;;;2.90;2.70;;;;;;;;;;10295541;28;20076;-61
2023/08/07 05:27:30;;;;;;;5.70;3.38;;;;;;;;;;10295348;28;20632;-62
2023/08/07 05:32:30;;;;;;;3.13;2.92;;;;;;;;;;10293605;28;20079;-62
2023/08/07 05:37:29;;;;;;;7.70;2.95;;;;;;;;;;10294637;28;20516;-62
2023/08/07 05:42:27;;;;;;;3.00;2.80;;;;;;;;;;10295234;28;20087;-62
2023/08/07 05:47:26;;;;;;;3.70;2.88;;;;;;;;;;10294240;28;20076;-62
2023/08/07 05:52:25;;;;;;;3.15;2.60;;;;;;;;;;10279264;28;20072;-62
2023/08/07 05:57:23;;;;;;;2.92;2.33;;;;;;;;;;10285155;28;20072;-62
2023/08/07 06:02:22;;;;;;;4.43;2.75;;;;;;;;;;10276261;28;20079;-62
2023/08/07 06:07:20;;;;;;;3.17;2.10;;;;;;;;;;10291585;28;20075;-62
2023/08/07 06:12:19;;;;;;;6.47;2.25;;;;;;;;;;10289339;28;20084;-62
2023/08/07 06:17:17;;;;;;;2.90;2.60;;;;;;;;;;10292264;28;20091;-62
2023/08/07 06:22:16;;;;;;;2.45;2.25;;;;;;;;;;10290710;28;20080;-62
2023/08/07 06:27:14;;;;;;;6.63;2.50;;;;;;;;;;10285034;28;20075;-60
2023/08/07 06:32:13;;;;;;;2.80;2.60;;;;;;;;;;10282272;28;20095;-62
2023/08/07 06:37:12;;;;;;;2.83;2.15;;;;;;;;;;10279749;28;20076;-62
2023/08/07 06:42:10;;;;;;;2.63;2.42;;;;;;;;;;10272692;28;20065;-62
2023/08/07 06:47:08;;;;;;;4.57;2.72;;;;;;;;;;10284349;28;20072;-61
2023/08/07 06:52:09;;;;;;;8.45;2.40;;;;;;;;;;10281402;28;20087;-61
2023/08/07 06:57:07;;;;;;;4.22;2.10;;;;;;;;;;10284130;28;20163;-61
2023/08/07 07:02:06;;;;;;;3.88;2.30;;;;;;;;;;10291097;28;20079;-62
2023/08/07 07:07:04;;;;;;;3.53;2.33;;;;;;;;;;10289177;28;20073;-62
2023/08/07 07:12:04;;;;;;;2.88;2.00;;;;;;;;;;10289707;28;20072;-62
2023/08/07 07:17:03;;;;;;;3.72;2.88;;;;;;;;;;10291645;28;20087;-61
2023/08/07 07:22:01;;;;;;;8.57;2.35;;;;;;;;;;10291524;28;20077;-61
2023/08/07 07:26:59;;;;;;;2.35;2.17;;;;;;;;;;10290903;28;20068;-62
2023/08/07 07:31:59;;;;;;;2.03;1.90;;;;;;;;;;10289156;28;20084;-62
2023/08/07 07:36:57;;;;;;;2.58;2.38;;;;;;;;;;10287765;28;20072;-62
2023/08/07 07:41:55;;;;;;;2.22;1.50;;;;;;;;;;10288473;28;20092;-62
2023/08/07 07:46:54;;;;;;;3.85;2.38;;;;;;;;;;10291821;28;20095;-62
2023/08/07 07:51:54;;;;;;;1.95;1.83;;;;;;;;;;10290073;28;20102;-62
2023/08/07 07:56:52;;;;;;;4.28;2.00;;;;;;;;;;10288925;28;20071;-63
2023/08/07 08:01:51;;;;;;;2.20;2.00;;;;;;;;;;10288086;28;20083;-62
2023/08/07 08:06:49;;;;;;;3.55;2.10;;;;;;;;;;10297060;28;20072;-62
2023/08/07 08:11:49;;;;;;;2.00;1.90;;;;;;;;;;10297796;28;20586;-63
2023/08/07 08:16:47;;;;;;;1.60;1.50;;;;;;;;;;10298457;28;20444;-60
2023/08/07 08:21:45;;;;;;;2.88;2.08;;;;;;;;;;10297886;28;20068;-61
2023/08/07 08:26:43;;;;;;;3.00;1.60;;;;;;;;;;10297959;28;20072;-61
2023/08/07 08:31:43;;;;;;;2.40;2.20;;;;;;;;;;10296682;28;20064;-62
2023/08/07 08:36:41;;;;;;;1.73;1.63;;;;;;;;;;10298042;28;20076;-62
2023/08/07 08:41:40;;;;;;;6.35;1.83;;;;;;;;;;10296898;28;20076;-61
2023/08/07 08:46:39;;;;;;;2.55;1.77;;;;;;;;;;10295457;28;20083;-62
2023/08/07 08:51:39;;;;;;;1.67;1.58;;;;;;;;;;10297746;28;20076;-61
2023/08/07 08:56:38;;;;;;;7.43;2.33;;;;;;;;;;10297599;28;20549;-61
2023/08/07 09:01:37;;;;;;;2.97;2.00;;;;;;;;;;10296882;28;20072;-61
2023/08/07 09:06:35;;;;;;;2.58;1.60;;;;;;;;;;10294441;28;20528;-61
2023/08/07 09:11:35;;;;;;;3.30;1.48;;;;;;;;;;10294894;28;20071;-61
2023/08/07 09:16:34;;;;;;;2.17;1.30;;;;;;;;;;10295551;28;20556;-61
2023/08/07 09:21:32;;;;;;;4.22;1.88;;;;;;;;;;10294776;28;20470;-62
2023/08/07 09:26:32;;;;;;;1.63;1.30;;;;;;;;;;10295930;28;20072;-62
2023/08/07 09:31:32;;;;;;;2.13;1.92;;;;;;;;;;10296614;28;20075;-61
2023/08/07 09:36:31;;;;;;;2.60;1.67;;;;;;;;;;10293093;28;20072;-61
2023/08/07 09:41:30;;;;;;;2.40;1.48;;;;;;;;;;10294885;28;20102;-61
2023/08/07 09:46:28;;;;;;;4.28;1.80;;;;;;;;;;10293294;28;20072;-62
2023/08/07 09:51:27;;;;;;;1.98;1.70;;;;;;;;;;10294983;28;20072;-62
2023/08/07 09:56:26;;;;;;;3.00;1.58;;;;;;;;;;10293825;28;20076;-61
2023/08/07 10:01:26;;;;;;;3.33;1.70;;;;;;;;;;10293496;28;20072;-63
2023/08/07 10:06:25;;;;;;;1.75;1.40;;;;;;;;;;10292183;28;20083;-62
2023/08/07 10:11:26;;;;;;;1.75;1.65;;;;;;;;;;10292439;28;20072;-63
2023/08/07 10:16:25;;;;;;;1.50;1.40;;;;;;;;;;10292034;28;20072;-62
2023/08/07 10:21:24;;;;;;;1.58;1.48;;;;;;;;;;10292884;28;20083;-63
2023/08/07 10:26:24;;;;;;;1.70;1.58;;;;;;;;;;10292106;28;20073;-63
2023/08/07 10:31:24;;;;;;;1.65;1.55;;;;;;;;;;10293505;28;20075;-62
2023/08/07 10:36:24;;;;;;;2.53;1.73;;;;;;;;;;10290770;28;20084;-62
2023/08/07 10:41:24;;;;;;;1.48;1.35;;;;;;;;;;10289769;28;20109;-63
2023/08/07 10:46:25;;;;;;;1.83;1.40;;;;;;;;;;10292515;28;20068;-62
2023/08/07 10:51:28;;;;;;;1.50;1.40;;;;;;;;;;10292311;28;20064;-62
2023/08/07 10:56:30;;;;;;;1.50;1.10;;;;;;;;;;10293206;28;20068;-62
2023/08/07 11:01:40;;;;;;;4.75;1.50;;;;;;;;;;10290447;28;20080;-61
2023/08/07 11:06:39;;;;;;;2.10;1.85;;;;;;;;;;10290553;28;20080;-62
2023/08/07 11:11:39;;;;;;;3.75;1.60;;;;;;;;;;10290216;28;20946;-61
2023/08/07 11:16:40;;;;;;;2.33;1.60;;;;;;;;;;10288947;28;20094;-61
2023/08/07 11:21:38;;;;;;;2.95;1.27;;;;;;;;;;10288264;28;20578;-61
2023/08/07 11:26:36;;;;;;;1.48;1.38;;;;;;;;;;10290751;28;20091;-62
2023/08/07 11:31:34;;;;;;;5.60;1.60;;;;;;;;;;10290864;28;20056;-63
2023/08/07 11:36:40;;;;;;;0.93;0.82;;;;;;;;;;10290270;28;20457;-62
2023/08/07 11:41:38;;;;;;;1.23;1.13;;;;;;;;;;10290847;28;20107;-62
2023/08/07 11:46:37;;;;;;;25.30;3.20;;;;;;;;;;10290973;28;20088;-62
2023/08/07 11:51:37;;;;;;;1.38;1.27;;;;;;;;;;10287756;28;20060;-62
2023/08/07 11:56:35;;;;;;;2.03;1.05;;;;;;;;;;10288705;28;20092;-63
2023/08/07 12:01:38;;;;;;;1.10;0.98;;;;;;;;;;10289451;28;20068;-63
2023/08/07 12:06:39;;;;;;;1.42;1.25;;;;;;;;;;10289585;28;20064;-62
2023/08/07 12:11:37;;;;;;;2.35;1.33;;;;;;;;;;10290424;28;20080;-62
2023/08/07 12:16:36;;;;;;;1.65;1.08;;;;;;;;;;10291396;28;20068;-62
2023/08/07 12:21:35;;;;;;;1.73;1.60;;;;;;;;;;10289137;28;20094;-62
2023/08/07 12:26:34;;;;;;;2.00;1.73;;;;;;;;;;10288467;28;20068;-62
2023/08/07 12:31:32;;;;;;;2.05;1.20;;;;;;;;;;10286875;28;20060;-61
2023/08/07 12:36:31;;;;;;;0.98;0.98;;;;;;;;;;10290402;28;20080;-62
2023/08/07 12:41:29;;;;;;;1.13;1.02;;;;;;;;;;10288625;28;20084;-63
2023/08/07 12:46:32;;;;;;;1.50;1.00;;;;;;;;;;10289211;28;20073;-62
2023/08/07 12:51:34;;;;;;;1.15;0.93;;;;;;;;;;10293583;28;20075;-63
2023/08/07 12:56:32;;;;;;;1.85;1.30;;;;;;;;;;10296845;28;20496;-62
2023/08/07 13:01:32;;;;;;;1.60;1.50;;;;;;;;;;10297026;28;20068;-63
2023/08/07 13:06:30;;;;;;;0.75;0.75;;;;;;;;;;10296112;28;20449;-61
2023/08/07 13:11:28;;;;;;;1.80;0.98;;;;;;;;;;10295796;28;20096;-61
2023/08/07 13:16:27;;;;;;;2.20;1.60;;;;;;;;;;10296093;28;20068;-62
2023/08/07 13:21:26;;;;;;;1.20;1.10;;;;;;;;;;10293074;28;20454;-61
2023/08/07 13:26:25;;;;;;;3.47;1.17;;;;;;;;;;10293264;28;20068;-62
2023/08/07 13:31:23;;;;;;;1.85;0.98;;;;;;;;;;10294375;28;20076;-61
2023/08/07 13:36:21;;;;;;;1.13;0.80;;;;;;;;;;10295131;28;20072;-62
2023/08/07 13:41:21;;;;;;;1.85;0.90;;;;;;;;;;10294652;28;20080;-62
2023/08/07 13:46:19;;;;;;;2.88;0.88;;;;;;;;;;10287604;28;20072;-63
2023/08/07 13:51:17;;;;;;;1.42;0.93;;;;;;;;;;10277613;28;20079;-63
2023/08/07 13:56:16;;;;;;;2.08;1.33;;;;;;;;;;10287059;28;20091;-62
2023/08/07 14:01:15;;;;;;;3.05;0.77;;;;;;;;;;10287489;28;20072;-60
2023/08/07 14:06:13;;;;;;;1.98;1.60;;;;;;;;;;10287245;28;20068;-61
2023/08/07 14:11:14;;;;;;;11.20;1.30;;;;;;;;;;10292788;28;20072;-60
2023/08/07 14:16:12;;;;;;;5.78;5.22;;;;;;;;;;10291979;28;20082;-62
2023/08/07 14:21:12;;;;;;;0.57;0.57;;;;;;;;;;10294336;28;20076;-62
2023/08/07 14:26:10;;;;;;;3.33;0.80;;;;;;;;;;10291290;28;20068;-62
2023/08/07 14:31:08;;;;;;;1.58;0.80;;;;;;;;;;10289090;28;20532;-62
2023/08/07 14:36:07;;;;;;;1.60;1.00;;;;;;;;;;10291636;28;20064;-62
2023/08/07 14:41:06;;;;;;;2.85;1.13;;;;;;;;;;10293407;28;20506;-62
2023/08/07 14:46:05;;;;;;;1.33;0.95;;;;;;;;;;10292148;28;20071;-62
2023/08/07 14:51:03;;;;;;;1.50;1.20;;;;;;;;;;10290222;28;20072;-62
2023/08/07 14:56:01;;;;;;;2.67;0.80;;;;;;;;;;10293122;28;20536;-64
2023/08/07 15:01:01;;;;;;;2.05;0.75;;;;;;;;;;10292101;28;20087;-62
2023/08/07 15:05:59;;;;;;;1.77;0.85;;;;;;;;;;10290891;28;20072;-63
2023/08/07 15:10:57;;;;;;;4.03;2.33;;;;;;;;;;10290969;28;20890;-62
2023/08/07 15:15:56;;;;;;;1.80;0.85;;;;;;;;;;10290370;28;20456;-62
2023/08/07 15:20:57;;;;;;;5.35;1.30;;;;;;;;;;10291299;28;20084;-63
2023/08/07 15:25:55;;;;;;;1.98;0.98;;;;;;;;;;10293241;28;20092;-62
2023/08/07 15:30:54;;;;;;;2.30;1.00;;;;;;;;;;10289653;28;20085;-62
2023/08/07 15:35:54;;;;;;;4.88;1.08;;;;;;;;;;10288531;28;20068;-61
2023/08/07 15:40:56;;;;;;;1.70;1.23;;;;;;;;;;10288309;28;20106;-62
2023/08/07 15:45:55;;;;;;;2.55;1.48;;;;;;;;;;10287326;28;20068;-62
2023/08/07 15:50:53;;;;;;;3.25;1.02;;;;;;;;;;10290277;28;20473;-62
2023/08/07 15:55:51;;;;;;;4.00;1.10;;;;;;;;;;10290306;28;20073;-62
2023/08/07 16:00:51;;;;;;;1.30;1.20;;;;;;;;;;10289851;28;20068;-63
2023/08/07 16:05:49;;;;;;;0.93;0.80;;;;;;;;;;10291663;28;20611;-61
2023/08/07 16:10:47;;;;;;;1.98;1.20;;;;;;;;;;10291311;28;20045;-62
2023/08/07 16:15:46;;;;;;;1.40;0.90;;;;;;;;;;10290627;28;20075;-61
2023/08/07 16:20:46;;;;;;;1.52;0.88;;;;;;;;;;10290132;28;20075;-61
2023/08/07 16:25:44;;;;;;;1.45;1.17;;;;;;;;;;10293428;28;20072;-61
2023/08/07 16:30:42;;;;;;;1.27;1.17;;;;;;;;;;10298913;28;20527;-61
2023/08/07 16:35:40;;;;;;;1.92;1.00;;;;;;;;;;10296579;28;20080;-61
2023/08/07 16:40:40;;;;;;;14.85;2.22;;;;;;;;;;10297375;28;20068;-62
2023/08/07 16:45:38;;;;;;;5.95;2.03;;;;;;;;;;10296757;28;20466;-62
2023/08/07 16:50:36;;;;;;;2.03;1.83;;;;;;;;;;10296880;28;20072;-63
2023/08/07 16:55:34;;;;;;;4.90;4.35;;;;;;;;;;10297357;28;20080;-62
2023/08/07 17:00:34;;;;;;;2.55;2.17;;;;;;;;;;10293866;28;20418;-63
2023/08/07 17:05:32;;;;;;;6.95;5.15;;;;;;;;;;10295031;28;20075;-62
2023/08/07 17:10:32;;;;;;;2.45;1.92;;;;;;;;;;10295937;28;20064;-62
2023/08/07 17:15:30;;;;;;;2.00;1.38;;;;;;;;;;10294784;28;20078;-62
2023/08/07 17:20:30;;;;;;;4.50;2.47;;;;;;;;;;10297332;28;20072;-62
2023/08/07 17:25:28;;;;;;;5.22;1.83;;;;;;;;;;10294754;28;20505;-62
2023/08/07 17:30:27;;;;;;;3.85;1.55;;;;;;;;;;10294722;28;20102;-62
2023/08/07 17:35:25;;;;;;;6.50;2.30;;;;;;;;;;10290864;28;20517;-62
2023/08/07 17:40:25;;;;;;;2.67;1.80;;;;;;;;;;10295785;28;20076;-62
2023/08/07 17:45:24;;;;;;;2.92;2.03;;;;;;;;;;10294831;28;20073;-62
2023/08/07 17:50:22;;;;;;;2.53;2.13;;;;;;;;;;10295477;28;20059;-62
2023/08/07 17:55:20;;;;;;;3.20;1.60;;;;;;;;;;10293487;28;20084;-61
2023/08/07 18:00:20;;;;;;;3.13;2.00;;;;;;;;;;10294884;28;20543;-61
2023/08/07 18:05:18;;;;;;;2.75;2.00;;;;;;;;;;10293671;28;20081;-61
2023/08/07 18:10:17;;;;;;;2.45;2.10;;;;;;;;;;10294698;28;20083;-62
2023/08/07 18:15:15;;;;;;;2.78;2.28;;;;;;;;;;10292296;28;20068;-63
2023/08/07 18:20:14;;;;;;;3.25;1.60;;;;;;;;;;10293935;28;20072;-63
2023/08/07 18:25:13;;;;;;;1.50;1.40;;;;;;;;;;10293304;28;20473;-60
2023/08/07 18:30:12;;;;;;;3.03;1.15;;;;;;;;;;10293944;28;20068;-63
2023/08/07 18:35:10;;;;;;;1.80;1.38;;;;;;;;;;10292833;28;20072;-62
2023/08/07 18:40:11;;;;;;;2.53;1.23;;;;;;;;;;10292873;28;20073;-62
2023/08/07 18:45:10;;;;;;;2.25;1.52;;;;;;;;;;10292259;28;20484;-62
2023/08/07 18:50:08;;;;;;;2.08;1.75;;;;;;;;;;10292376;28;20092;-63
2023/08/07 18:55:07;;;;;;;2.67;1.40;;;;;;;;;;10291081;28;20099;-63
2023/08/07 19:00:08;;;;;;;2.85;1.33;;;;;;;;;;10292537;28;20084;-62
2023/08/07 19:05:07;;;;;;;1.73;1.40;;;;;;;;;;10290597;28;20502;-62
2023/08/07 19:10:06;;;;;;;6.05;1.40;;;;;;;;;;10292368;28;20072;-63
2023/08/07 19:15:05;;;;;;;1.70;1.50;;;;;;;;;;10289120;28;20091;-61
2023/08/07 19:20:05;;;;;;;2.67;1.70;;;;;;;;;;10292231;28;20462;-61
2023/08/07 19:25:04;;;;;;;2.47;1.20;;;;;;;;;;10287249;28;20477;-62
2023/08/07 19:30:02;;;;;;;1.60;1.30;;;;;;;;;;10292791;28;20069;-62
2023/08/07 19:35:00;;;;;;;1.70;1.15;;;;;;;;;;10290761;28;20526;-61
2023/08/07 19:40:06;;;;;;;1.55;1.45;;;;;;;;;;10290615;28;20075;-61
2023/08/07 19:45:05;;;;;;;2.47;1.30;;;;;;;;;;10290174;28;20422;-61
2023/08/07 19:50:05;;;;;;;2.08;1.25;;;;;;;;;;10290462;28;20076;-63
2023/08/07 19:55:06;;;;;;;2.17;1.20;;;;;;;;;;10291770;28;20075;-62
2023/08/07 20:00:05;;;;;;;0.95;0.95;;;;;;;;;;10286598;28;20080;-63
2023/08/07 20:05:04;;;;;;;1.15;1.02;;;;;;;;;;10247418;28;20137;-63
2023/08/07 20:10:04;;;;;;;1.83;1.42;;;;;;;;;;10273019;28;20064;-63
2023/08/07 20:15:05;;;;;;;5.38;1.58;;;;;;;;;;10257313;28;20064;-63
2023/08/07 20:20:04;;;;;;;1.73;1.35;;;;;;;;;;10258906;28;20814;-62
2023/08/07 20:25:02;;;;;;;1.38;1.27;;;;;;;;;;10257253;28;20097;-62
2023/08/07 20:30:03;;;;;;;3.60;1.50;;;;;;;;;;10258636;28;20068;-62
2023/08/07 20:35:03;;;;;;;9.48;1.55;;;;;;;;;;10256391;28;20700;-61
2023/08/07 20:40:01;;;;;;;2.83;2.05;;;;;;;;;;10258402;28;20076;-63
2023/08/07 20:44:59;;;;;;;5.20;2.70;;;;;;;;;;10275454;28;20079;-62
2023/08/07 20:49:57;;;;;;;2.55;2.30;;;;;;;;;;10254245;28;20077;-63
2023/08/07 20:54:57;;;;;;;3.10;2.15;;;;;;;;;;10257440;28;20512;-63
2023/08/07 20:59:55;;;;;;;3.90;1.90;;;;;;;;;;10259861;28;20095;-62
2023/08/07 21:04:53;;;;;;;1.98;1.60;;;;;;;;;;10255417;28;20095;-63
2023/08/07 21:09:52;;;;;;;4.93;1.90;;;;;;;;;;10257050;28;20486;-63
2023/08/07 21:14:51;;;;;;;4.25;1.75;;;;;;;;;;10256778;28;20079;-62
2023/08/07 21:19:49;;;;;;;2.88;1.38;;;;;;;;;;10261130;28;20073;-62
2023/08/07 21:24:48;;;;;;;1.70;1.38;;;;;;;;;;10256686;28;20092;-62
2023/08/07 21:29:46;;;;;;;1.30;1.20;;;;;;;;;;10262111;28;20065;-62
2023/08/07 21:34:46;;;;;;;1.80;1.70;;;;;;;;;;10293128;28;20071;-62
2023/08/07 21:39:44;;;;;;;2.00;1.80;;;;;;;;;;10294895;28;20064;-63
2023/08/07 21:44:42;;;;;;;2.65;2.00;;;;;;;;;;10295577;28;20082;-63
2023/08/07 21:49:41;;;;;;;2.00;1.80;;;;;;;;;;10293183;28;20068;-63
2023/08/07 21:54:41;;;;;;;4.18;1.70;;;;;;;;;;10294250;28;20072;-63
2023/08/07 21:59:39;;;;;;;1.80;1.38;;;;;;;;;;10295745;28;20091;-63
2023/08/07 22:04:37;;;;;;;1.60;1.48;;;;;;;;;;10294035;28;20073;-64
2023/08/07 22:09:36;;;;;;;3.53;1.58;;;;;;;;;;10295340;28;20084;-62
2023/08/07 22:14:35;;;;;;;1.95;1.50;;;;;;;;;;10293798;28;20080;-62
2023/08/07 22:19:33;;;;;;;4.13;1.52;;;;;;;;;;10286914;28;20076;-62
2023/08/07 22:24:32;;;;;;;1.60;1.50;;;;;;;;;;10289518;28;20080;-62
2023/08/07 22:29:30;;;;;;;3.78;1.50;;;;;;;;;;10294215;28;20091;-63
2023/08/07 22:34:29;;;;;;;1.65;1.20;;;;;;;;;;10288926;28;20088;-62
2023/08/07 22:39:28;;;;;;;2.92;1.40;;;;;;;;;;10290689;28;20103;-63
2023/08/07 22:44:26;;;;;;;1.63;1.50;;;;;;;;;;10291782;28;20465;-63
2023/08/07 22:49:24;;;;;;;1.80;1.48;;;;;;;;;;10293092;28;20072;-61
2023/08/07 22:54:25;;;;;;;2.95;1.60;;;;;;;;;;10292576;28;20072;-62
2023/08/07 22:59:24;;;;;;;3.60;2.10;;;;;;;;;;10290503;28;20080;-62
2023/08/07 23:04:22;;;;;;;1.83;1.67;;;;;;;;;;10291324;28;20075;-62
2023/08/07 23:09:20;;;;;;;2.40;1.90;;;;;;;;;;10291961;28;20064;-62
2023/08/07 23:14:20;;;;;;;1.95;1.70;;;;;;;;;;10292330;28;20068;-63
2023/08/07 23:19:18;;;;;;;2.13;1.90;;;;;;;;;;10291738;28;20080;-62
2023/08/07 23:24:16;;;;;;;1.70;1.60;;;;;;;;;;10291363;28;20458;-62
2023/08/07 23:29:15;;;;;;;3.97;1.80;;;;;;;;;;10292063;28;20508;-62
2023/08/07 23:34:17;;;;;;;2.13;1.65;;;;;;;;;;10290773;28;20075;-62
2023/08/07 23:39:16;;;;;;;1.70;1.60;;;;;;;;;;10287543;28;20436;-63
2023/08/07 23:44:14;;;;;;;3.45;1.92;;;;;;;;;;10290969;28;20076;-63
2023/08/07 23:49:14;;;;;;;3.17;1.90;;;;;;;;;;10291057;28;20087;-62
2023/08/07 23:54:12;;;;;;;1.90;1.80;;;;;;;;;;10289282;28;20072;-63
2023/08/07 23:59:10;;;;;;;1.70;1.60;;;;;;;;;;10292112;28;20685;-63
